地図

経路データ

SID SEASON NUMBER BASIN SUBBASIN NAME ISO_TIME NATURE LAT LON WMO_WIND WMO_PRES WMO_AGENCY TRACK_TYPE DIST2LAND LANDFALL IFLAG USA_AGENCY USA_ATCF_ID USA_LAT USA_LON USA_RECORD USA_STATUS USA_WIND USA_PRES USA_SSHS USA_R34_NE USA_R34_SE USA_R34_SW USA_R34_NW USA_R50_NE USA_R50_SE USA_R50_SW USA_R50_NW USA_R64_NE USA_R64_SE USA_R64_SW USA_R64_NW USA_POCI USA_ROCI USA_RMW USA_EYE TOKYO_LAT TOKYO_LON TOKYO_GRADE TOKYO_WIND TOKYO_PRES TOKYO_R50_DIR TOKYO_R50_LONG TOKYO_R50_SHORT TOKYO_R30_DIR TOKYO_R30_LONG TOKYO_R30_SHORT TOKYO_LAND CMA_LAT CMA_LON CMA_CAT CMA_WIND CMA_PRES HKO_LAT HKO_LON HKO_CAT HKO_WIND HKO_PRES NEWDELHI_LAT NEWDELHI_LON NEWDELHI_GRADE NEWDELHI_WIND NEWDELHI_PRES NEWDELHI_CI NEWDELHI_DP NEWDELHI_POCI REUNION_LAT REUNION_LON REUNION_TYPE REUNION_WIND REUNION_PRES REUNION_TNUM REUNION_CI REUNION_RMW REUNION_R34_NE REUNION_R34_SE REUNION_R34_SW REUNION_R34_NW REUNION_R50_NE REUNION_R50_SE REUNION_R50_SW REUNION_R50_NW REUNION_R64_NE REUNION_R64_SE REUNION_R64_SW REUNION_R64_NW BOM_LAT BOM_LON BOM_TYPE BOM_WIND BOM_PRES BOM_TNUM BOM_CI BOM_RMW BOM_R34_NE BOM_R34_SE BOM_R34_SW BOM_R34_NW BOM_R50_NE BOM_R50_SE BOM_R50_SW BOM_R50_NW BOM_R64_NE BOM_R64_SE BOM_R64_SW BOM_R64_NW BOM_ROCI BOM_POCI BOM_EYE BOM_POS_METHOD BOM_PRES_METHOD NADI_LAT NADI_LON NADI_CAT NADI_WIND NADI_PRES WELLINGTON_LAT WELLINGTON_LON WELLINGTON_WIND WELLINGTON_PRES DS824_LAT DS824_LON DS824_STAGE DS824_WIND DS824_PRES TD9636_LAT TD9636_LON TD9636_STAGE TD9636_WIND TD9636_PRES TD9635_LAT TD9635_LON TD9635_WIND TD9635_PRES TD9635_ROCI NEUMANN_LAT NEUMANN_LON NEUMANN_CLASS NEUMANN_WIND NEUMANN_PRES MLC_LAT MLC_LON MLC_CLASS MLC_WIND MLC_PRES USA_GUST BOM_GUST BOM_GUST_PER REUNION_GUST REUNION_GUST_PER USA_SEAHGT USA_SEARAD_NE USA_SEARAD_SE USA_SEARAD_SW USA_SEARAD_NW STORM_SPEED STORM_DIR
1924271N17274 1924 38 NA CS NOT_NAMED 1924-09-27 00:00:00 TS 16.5000 -86.0000 25 hurdat_atl main 67 67 O_____________ hurdat_atl AL081924 16.5000 -86.0000 TD 25 -1 5 2
1924271N17274 1924 38 NA CS NOT_NAMED 1924-09-27 03:00:00 TS 16.7500 -85.9875 main 101 90 P_____________ AL081924 16.7500 -85.9875 TD 25 -1 5 2
1924271N17274 1924 38 NA CS NOT_NAMED 1924-09-27 06:00:00 TS 17.0000 -86.0000 25 hurdat_atl main 123 123 O_____________ hurdat_atl AL081924 17.0000 -86.0000 TD 25 -1 5 353
1924271N17274 1924 38 NA CS NOT_NAMED 1924-09-27 09:00:00 TS 17.2500 -86.0499 main 157 157 P_____________ AL081924 17.2500 -86.0499 TD 27 -1 5 349
1924271N17274 1924 38 NA CS NOT_NAMED 1924-09-27 12:00:00 TS 17.5000 -86.1000 30 hurdat_atl main 180 180 O_____________ hurdat_atl AL081924 17.5000 -86.1000 TD 30 -1 5 353
1924271N17274 1924 38 NA CS NOT_NAMED 1924-09-27 15:00:00 TS 17.7425 -86.1075 main 188 181 P_____________ AL081924 17.7425 -86.1075 TD 30 -1 5 2
1924271N17274 1924 38 NA CS NOT_NAMED 1924-09-27 18:00:00 TS 18.0000 -86.1000 30 hurdat_atl main 181 171 O_____________ hurdat_atl AL081924 18.0000 -86.1000 TD 30 -1 6 0
1924271N17274 1924 38 NA CS NOT_NAMED 1924-09-27 21:00:00 TS 18.2925 -86.0925 main 171 161 P_____________ AL081924 18.2925 -86.0925 TD 30 -1 6 1
1924271N17274 1924 38 NA CS NOT_NAMED 1924-09-28 00:00:00 TS 18.6000 -86.1000 30 hurdat_atl main 161 150 O_____________ hurdat_atl AL081924 18.6000 -86.1000 TD 30 -1 6 355
1924271N17274 1924 38 NA CS NOT_NAMED 1924-09-28 03:00:00 TS 18.8850 -86.1499 main 150 130 P_____________ AL081924 18.8850 -86.1499 TD 30 -1 6 351
1924271N17274 1924 38 NA CS NOT_NAMED 1924-09-28 06:00:00 TS 19.2000 -86.2000 30 hurdat_atl main 130 125 O_____________ hurdat_atl AL081924 19.2000 -86.2000 TD 30 -1 7 356
1924271N17274 1924 38 NA CS NOT_NAMED 1924-09-28 09:00:00 TS 19.5475 -86.2075 main 125 115 P_____________ AL081924 19.5475 -86.2075 TD 30 -1 8 1
1924271N17274 1924 38 NA CS NOT_NAMED 1924-09-28 12:00:00 TS 20.0000 -86.2000 30 hurdat_atl main 115 80 O_____________ hurdat_atl AL081924 20.0000 -86.2000 TD 30 -1 10 0
1924271N17274 1924 38 NA CS NOT_NAMED 1924-09-28 15:00:00 TS 20.5825 -86.2000 main 76 51 P_____________ AL081924 20.5825 -86.2000 TD 32 -1 13 1
1924271N17274 1924 38 NA CS NOT_NAMED 1924-09-28 18:00:00 TS 21.3000 -86.2000 35 hurdat_atl main 56 56 O_____________ hurdat_atl AL081924 21.3000 -86.2000 TS 35 0 15 0
1924271N17274 1924 38 NA GM NOT_NAMED 1924-09-28 21:00:00 TS 22.0975 -86.1780 main 106 106 P_____________ AL081924 22.0975 -86.1780 TS 37 0 17 0
1924271N17274 1924 38 NA GM NOT_NAMED 1924-09-29 00:00:00 TS 23.0000 -86.2000 40 hurdat_atl main 174 174 O_____________ hurdat_atl AL081924 23.0000 -86.2000 TS 40 0 19 355
1924271N17274 1924 38 NA GM NOT_NAMED 1924-09-29 03:00:00 TS 23.9776 -86.3419 main 269 269 P_____________ AL081924 23.9776 -86.3419 TS 42 0 20 352
1924271N17274 1924 38 NA GM NOT_NAMED 1924-09-29 06:00:00 TS 25.0000 -86.5000 45 hurdat_atl main 361 361 O_____________ hurdat_atl AL081924 25.0000 -86.5000 TS 45 0 21 351
1924271N17274 1924 38 NA GM NOT_NAMED 1924-09-29 09:00:00 TS 25.9993 -86.6895 main 410 333 P_____________ AL081924 25.9993 -86.6895 TS 47 0 20 358
1924271N17274 1924 38 NA GM NOT_NAMED 1924-09-29 12:00:00 TS 27.0000 -86.6000 50 999 hurdat_atl main 323 209 O_____________ hurdat_atl AL081924 27.0000 -86.6000 TS 50 999 0 21 18
1924271N17274 1924 38 NA GM NOT_NAMED 1924-09-29 15:00:00 TS 28.0003 -85.9579 main 198 89 P_____________ AL081924 28.0003 -85.9579 TS 52 0 25 35
1924271N17274 1924 38 NA GM NOT_NAMED 1924-09-29 18:00:00 TS 29.0000 -85.0000 55 hurdat_atl main 78 14 O_____________ hurdat_atl AL081924 29.0000 -85.0000 TS 55 0 26 41
1924271N17274 1924 38 NA GM NOT_NAMED 1924-09-29 21:00:00 TS 30.0000 -84.0000 55 hurdat_atl main 11 0 O_____________ hurdat_atl AL081924 30.0000 -84.0000 L TS 55 0 27 41
1924271N17274 1924 38 NA NA NOT_NAMED 1924-09-30 00:00:00 ET 31.0000 -83.0000 55 hurdat_atl main 0 0 O_____________ hurdat_atl AL081924 31.0000 -83.0000 EX 55 -4 27 42
1924271N17274 1924 38 NA NA NOT_NAMED 1924-09-30 03:00:00 ET 31.9990 -81.9055 main 0 0 P_____________ AL081924 31.9990 -81.9055 EX 55 -4 28 44
1924271N17274 1924 38 NA NA NOT_NAMED 1924-09-30 06:00:00 ET 33.0000 -80.7000 55 1001 hurdat_atl main 0 0 O_____________ hurdat_atl AL081924 33.0000 -80.7000 EX 55 1001 -4 29 48
1924271N17274 1924 38 NA NA NOT_NAMED 1924-09-30 09:00:00 ET 33.9251 -79.3597 main 0 0 P_____________ AL081924 33.9251 -79.3597 EX 57 -4 30 48
1924271N17274 1924 38 NA NA NOT_NAMED 1924-09-30 12:00:00 ET 35.0000 -78.0000 60 hurdat_atl main 0 0 O_____________ hurdat_atl AL081924 35.0000 -78.0000 EX 60 -4 32 42
1924271N17274 1924 38 NA NA NOT_NAMED 1924-09-30 15:00:00 ET 36.3115 -76.7269 main 0 0 P_____________ AL081924 36.3115 -76.7269 EX 62 -4 36 34
1924271N17274 1924 38 NA NA NOT_NAMED 1924-09-30 18:00:00 ET 38.0000 -75.5000 65 hurdat_atl main 0 0 O_____________ hurdat_atl AL081924 38.0000 -75.5000 EX 65 -4 43 27
1924271N17274 1924 38 NA NA NOT_NAMED 1924-09-30 21:00:00 ET 40.1275 -74.2761 main 0 0 P_____________ AL081924 40.1275 -74.2761 EX 60 -4 49 23
1924271N17274 1924 38 NA NA NOT_NAMED 1924-10-01 00:00:00 ET 42.5000 -73.0000 55 hurdat_atl main 0 O_____________ hurdat_atl AL081924 42.5000 -73.0000 EX 55 -4 51 22

IBTrACS Databaseについて

本データベースは、米国NOAAが公開する1842年以降の世界の熱帯低気圧のベストトラックデータアーカイブInternational Best Track Archive for Climate Stewardship (IBTrACS)を、ウェブで閲覧しやすい形式に変換したものです。

最終更新日:2021-11-26